sensor_id;sensor_type;location;lat;lon;timestamp;pressure;altitude;pressure_sealevel;temperature;humidity
45541;BME280;31265;49.680;8.608;2022-09-30T00:01:37;99720.66;;;8.04;100.00
45541;BME280;31265;49.680;8.608;2022-09-30T00:04:08;99724.34;;;8.06;100.00
45541;BME280;31265;49.680;8.608;2022-09-30T00:06:36;99721.00;;;8.08;100.00
45541;BME280;31265;49.680;8.608;2022-09-30T00:09:05;99723.22;;;8.09;100.00
45541;BME280;31265;49.680;8.608;2022-09-30T00:11:34;99721.19;;;8.10;100.00
45541;BME280;31265;49.680;8.608;2022-09-30T00:14:07;99720.63;;;8.11;100.00
45541;BME280;31265;49.680;8.608;2022-09-30T00:16:39;99719.50;;;8.14;100.00
45541;BME280;31265;49.680;8.608;2022-09-30T00:19:07;99718.78;;;8.14;100.00
45541;BME280;31265;49.680;8.608;2022-09-30T00:21:35;99720.25;;;8.15;100.00
45541;BME280;31265;49.680;8.608;2022-09-30T00:24:06;99718.19;;;8.15;100.00
45541;BME280;31265;49.680;8.608;2022-09-30T00:26:34;99720.41;;;8.17;100.00
45541;BME280;31265;49.680;8.608;2022-09-30T00:29:03;99720.59;;;8.19;100.00
45541;BME280;31265;49.680;8.608;2022-09-30T00:31:34;99726.44;;;8.23;100.00
45541;BME280;31265;49.680;8.608;2022-09-30T00:34:02;99718.53;;;8.27;100.00
45541;BME280;31265;49.680;8.608;2022-09-30T00:36:36;99717.97;;;8.29;100.00
45541;BME280;31265;49.680;8.608;2022-09-30T00:39:07;99722.38;;;8.32;100.00
45541;BME280;31265;49.680;8.608;2022-09-30T00:41:36;99719.78;;;8.34;100.00
45541;BME280;31265;49.680;8.608;2022-09-30T00:47:26;99736.91;;;8.40;100.00
45541;BME280;31265;49.680;8.608;2022-09-30T00:49:59;99726.75;;;8.43;100.00
45541;BME280;31265;49.680;8.608;2022-09-30T00:52:29;99720.84;;;8.46;100.00
45541;BME280;31265;49.680;8.608;2022-09-30T00:54:59;99725.97;;;8.50;100.00
45541;BME280;31265;49.680;8.608;2022-09-30T00:57:29;99728.00;;;8.49;100.00
45541;BME280;31265;49.680;8.608;2022-09-30T00:59:57;99725.97;;;8.50;100.00
45541;BME280;31265;49.680;8.608;2022-09-30T01:02:26;99723.38;;;8.52;100.00
45541;BME280;31265;49.680;8.608;2022-09-30T01:04:55;99724.13;;;8.52;100.00
45541;BME280;31265;49.680;8.608;2022-09-30T01:07:23;99722.84;;;8.53;100.00
45541;BME280;31265;49.680;8.608;2022-09-30T01:09:52;99726.16;;;8.52;100.00
45541;BME280;31265;49.680;8.608;2022-09-30T01:12:22;99724.28;;;8.54;100.00
45541;BME280;31265;49.680;8.608;2022-09-30T01:14:53;99725.78;;;8.48;100.00
45541;BME280;31265;49.680;8.608;2022-09-30T01:17:34;99730.41;;;8.45;100.00
45541;BME280;31265;49.680;8.608;2022-09-30T01:20:20;99736.53;;;8.44;100.00
45541;BME280;31265;49.680;8.608;2022-09-30T01:23:01;99739.28;;;8.44;100.00
45541;BME280;31265;49.680;8.608;2022-09-30T01:25:52;99743.72;;;8.39;100.00
45541;BME280;31265;49.680;8.608;2022-09-30T01:28:43;99748.88;;;8.35;100.00
45541;BME280;31265;49.680;8.608;2022-09-30T01:31:31;99741.16;;;8.33;100.00
45541;BME280;31265;49.680;8.608;2022-09-30T01:34:13;99743.72;;;8.39;100.00
45541;BME280;31265;49.680;8.608;2022-09-30T01:36:55;99744.06;;;8.43;100.00
45541;BME280;31265;49.680;8.608;2022-09-30T01:39:35;99745.19;;;8.40;100.00
45541;BME280;31265;49.680;8.608;2022-09-30T01:42:11;99744.47;;;8.39;100.00
45541;BME280;31265;49.680;8.608;2022-09-30T01:44:47;99742.63;;;8.34;100.00
45541;BME280;31265;49.680;8.608;2022-09-30T01:47:24;99747.44;;;8.34;100.00
45541;BME280;31265;49.680;8.608;2022-09-30T01:49:57;99745.59;;;8.29;100.00
45541;BME280;31265;49.680;8.608;2022-09-30T01:52:30;99756.31;;;8.25;100.00
45541;BME280;31265;49.680;8.608;2022-09-30T01:55:02;99763.13;;;8.24;100.00
45541;BME280;31265;49.680;8.608;2022-09-30T01:57:39;99760.38;;;8.24;100.00
45541;BME280;31265;49.680;8.608;2022-09-30T02:00:11;99758.88;;;8.23;100.00
45541;BME280;31265;49.680;8.608;2022-09-30T02:02:46;99762.56;;;8.25;100.00
45541;BME280;31265;49.680;8.608;2022-09-30T02:05:19;99758.53;;;8.26;100.00
45541;BME280;31265;49.680;8.608;2022-09-30T02:07:51;99763.50;;;8.20;100.00
45541;BME280;31265;49.680;8.608;2022-09-30T02:10:24;99759.44;;;8.29;100.00
45541;BME280;31265;49.680;8.608;2022-09-30T02:12:56;99762.78;;;8.19;100.00
45541;BME280;31265;49.680;8.608;2022-09-30T02:15:27;99764.41;;;8.23;100.00
45541;BME280;31265;49.680;8.608;2022-09-30T02:18:11;99759.66;;;8.15;100.00
45541;BME280;31265;49.680;8.608;2022-09-30T02:20:48;99761.50;;;8.13;100.00
45541;BME280;31265;49.680;8.608;2022-09-30T02:23:21;99765.94;;;8.16;100.00
45541;BME280;31265;49.680;8.608;2022-09-30T02:25:54;99767.59;;;8.11;100.00
45541;BME280;31265;49.680;8.608;2022-09-30T02:28:28;99761.91;;;8.09;100.00
45541;BME280;31265;49.680;8.608;2022-09-30T02:30:58;99757.09;;;8.10;100.00
45541;BME280;31265;49.680;8.608;2022-09-30T02:33:31;99756.38;;;8.09;100.00
45541;BME280;31265;49.680;8.608;2022-09-30T02:36:04;99759.88;;;8.10;100.00
45541;BME280;31265;49.680;8.608;2022-09-30T02:38:37;99764.09;;;8.11;100.00
45541;BME280;31265;49.680;8.608;2022-09-30T02:41:10;99770.38;;;8.11;100.00
45541;BME280;31265;49.680;8.608;2022-09-30T02:43:40;99765.56;;;8.12;100.00
45541;BME280;31265;49.680;8.608;2022-09-30T02:46:15;99774.78;;;8.14;100.00
45541;BME280;31265;49.680;8.608;2022-09-30T02:48:49;99780.47;;;8.16;100.00
45541;BME280;31265;49.680;8.608;2022-09-30T02:51:25;99780.66;;;8.18;100.00
45541;BME280;31265;49.680;8.608;2022-09-30T02:54:02;99786.19;;;8.18;100.00
45541;BME280;31265;49.680;8.608;2022-09-30T02:56:39;99787.69;;;8.12;100.00
45541;BME280;31265;49.680;8.608;2022-09-30T02:59:11;99793.94;;;8.12;100.00
45541;BME280;31265;49.680;8.608;2022-09-30T03:01:40;99790.81;;;8.08;100.00
45541;BME280;31265;49.680;8.608;2022-09-30T03:04:14;99805.38;;;8.09;100.00
45541;BME280;31265;49.680;8.608;2022-09-30T03:06:43;99808.50;;;8.05;100.00
45541;BME280;31265;49.680;8.608;2022-09-30T03:09:11;99804.84;;;8.03;100.00
45541;BME280;31265;49.680;8.608;2022-09-30T03:11:39;99803.91;;;8.00;100.00
45541;BME280;31265;49.680;8.608;2022-09-30T03:14:28;99798.22;;;7.98;100.00
45541;BME280;31265;49.680;8.608;2022-09-30T03:17:08;99795.63;;;8.00;100.00
45541;BME280;31265;49.680;8.608;2022-09-30T03:19:59;99796.38;;;7.93;100.00
45541;BME280;31265;49.680;8.608;2022-09-30T03:22:47;99804.34;;;7.89;100.00
45541;BME280;31265;49.680;8.608;2022-09-30T03:25:29;99806.72;;;7.85;100.00
45541;BME280;31265;49.680;8.608;2022-09-30T03:28:09;99809.69;;;7.79;100.00
45541;BME280;31265;49.680;8.608;2022-09-30T03:30:46;99802.16;;;7.72;100.00
45541;BME280;31265;49.680;8.608;2022-09-30T03:33:21;99802.16;;;7.64;100.00
45541;BME280;31265;49.680;8.608;2022-09-30T03:35:58;99809.69;;;7.56;100.00
45541;BME280;31265;49.680;8.608;2022-09-30T03:38:37;99810.28;;;7.47;100.00
45541;BME280;31265;49.680;8.608;2022-09-30T03:41:14;99820.94;;;7.43;100.00
45541;BME280;31265;49.680;8.608;2022-09-30T03:43:47;99814.13;;;7.28;100.00
45541;BME280;31265;49.680;8.608;2022-09-30T03:46:20;99821.28;;;7.16;100.00
45541;BME280;31265;49.680;8.608;2022-09-30T03:48:52;99813.56;;;7.07;100.00
45541;BME280;31265;49.680;8.608;2022-09-30T03:51:23;99812.63;;;7.04;100.00
45541;BME280;31265;49.680;8.608;2022-09-30T03:53:51;99809.69;;;6.95;100.00
45541;BME280;31265;49.680;8.608;2022-09-30T03:56:24;99801.97;;;6.85;100.00
45541;BME280;31265;49.680;8.608;2022-09-30T03:58:53;99815.00;;;6.85;100.00
45541;BME280;31265;49.680;8.608;2022-09-30T04:01:21;99819.75;;;6.77;100.00
45541;BME280;31265;49.680;8.608;2022-09-30T04:03:52;99820.13;;;6.73;100.00
45541;BME280;31265;49.680;8.608;2022-09-30T04:06:23;99828.59;;;6.75;100.00
45541;BME280;31265;49.680;8.608;2022-09-30T04:08:51;99832.63;;;6.74;100.00
45541;BME280;31265;49.680;8.608;2022-09-30T04:11:20;99837.22;;;6.72;100.00
45541;BME280;31265;49.680;8.608;2022-09-30T04:13:48;99832.63;;;6.74;100.00
45541;BME280;31265;49.680;8.608;2022-09-30T04:16:16;99844.94;;;6.73;100.00
45541;BME280;31265;49.680;8.608;2022-09-30T04:18:44;99841.59;;;6.67;100.00
45541;BME280;31265;49.680;8.608;2022-09-30T04:21:13;99844.34;;;6.67;100.00
45541;BME280;31265;49.680;8.608;2022-09-30T04:23:43;99846.56;;;6.61;100.00
45541;BME280;31265;49.680;8.608;2022-09-30T04:26:12;99845.97;;;6.55;100.00
45541;BME280;31265;49.680;8.608;2022-09-30T04:28:40;99846.22;;;6.72;100.00
45541;BME280;31265;49.680;8.608;2022-09-30T04:31:10;99845.06;;;6.60;100.00
45541;BME280;31265;49.680;8.608;2022-09-30T04:33:38;99850.19;;;6.48;100.00
45541;BME280;31265;49.680;8.608;2022-09-30T04:36:06;99850.13;;;6.40;100.00
45541;BME280;31265;49.680;8.608;2022-09-30T04:38:35;99860.03;;;6.28;100.00
45541;BME280;31265;49.680;8.608;2022-09-30T04:41:05;99862.34;;;6.16;100.00
45541;BME280;31265;49.680;8.608;2022-09-30T04:43:33;99868.63;;;6.24;100.00
45541;BME280;31265;49.680;8.608;2022-09-30T04:46:01;99876.13;;;6.16;100.00
45541;BME280;31265;49.680;8.608;2022-09-30T04:48:30;99875.38;;;6.16;100.00
45541;BME280;31265;49.680;8.608;2022-09-30T04:50:58;99877.00;;;6.11;100.00
45541;BME280;31265;49.680;8.608;2022-09-30T04:53:27;99882.50;;;6.11;100.00
45541;BME280;31265;49.680;8.608;2022-09-30T04:55:58;99887.56;;;6.28;100.00
45541;BME280;31265;49.680;8.608;2022-09-30T04:58:28;99885.25;;;6.11;100.00
45541;BME280;31265;49.680;8.608;2022-09-30T05:01:04;99880.97;;;6.02;100.00
45541;BME280;31265;49.680;8.608;2022-09-30T05:03:33;99888.09;;;5.98;100.00
45541;BME280;31265;49.680;8.608;2022-09-30T05:06:01;99888.88;;;5.98;100.00
45541;BME280;31265;49.680;8.608;2022-09-30T05:08:30;99893.06;;;5.99;100.00
45541;BME280;31265;49.680;8.608;2022-09-30T05:11:00;99897.13;;;5.98;100.00
45541;BME280;31265;49.680;8.608;2022-09-30T05:13:31;99894.91;;;5.97;100.00
45541;BME280;31265;49.680;8.608;2022-09-30T05:16:01;99900.06;;;6.00;100.00
45541;BME280;31265;49.680;8.608;2022-09-30T05:18:30;99902.06;;;6.00;100.00
45541;BME280;31265;49.680;8.608;2022-09-30T05:21:00;99894.75;;;6.02;100.00
45541;BME280;31265;49.680;8.608;2022-09-30T05:23:30;99898.78;;;6.01;100.00
45541;BME280;31265;49.680;8.608;2022-09-30T05:25:58;99899.69;;;5.96;100.00
45541;BME280;31265;49.680;8.608;2022-09-30T05:28:26;99909.41;;;5.97;100.00
45541;BME280;31265;49.680;8.608;2022-09-30T05:30:59;99907.72;;;5.94;100.00
45541;BME280;31265;49.680;8.608;2022-09-30T05:33:29;99919.81;;;5.91;100.00
45541;BME280;31265;49.680;8.608;2022-09-30T05:35:58;99921.28;;;5.92;100.00
45541;BME280;31265;49.680;8.608;2022-09-30T05:38:27;99922.44;;;5.97;100.00
45541;BME280;31265;49.680;8.608;2022-09-30T05:40:55;99925.19;;;5.97;100.00
45541;BME280;31265;49.680;8.608;2022-09-30T05:43:23;99933.25;;;5.95;100.00
45541;BME280;31265;49.680;8.608;2022-09-30T05:45:53;99936.22;;;5.97;100.00
45541;BME280;31265;49.680;8.608;2022-09-30T05:48:23;99940.22;;;5.96;100.00
45541;BME280;31265;49.680;8.608;2022-09-30T05:50:53;99940.63;;;6.00;100.00
45541;BME280;31265;49.680;8.608;2022-09-30T05:53:21;99961.41;;;6.01;100.00
45541;BME280;31265;49.680;8.608;2022-09-30T05:55:49;99967.84;;;6.03;100.00
45541;BME280;31265;49.680;8.608;2022-09-30T05:58:18;99978.47;;;5.99;100.00
45541;BME280;31265;49.680;8.608;2022-09-30T06:00:47;99987.59;;;5.94;100.00
45541;BME280;31265;49.680;8.608;2022-09-30T06:03:16;99995.97;;;5.89;100.00
45541;BME280;31265;49.680;8.608;2022-09-30T06:05:46;100000.09;;;5.95;100.00
45541;BME280;31265;49.680;8.608;2022-09-30T06:08:14;100002.94;;;5.90;100.00
45541;BME280;31265;49.680;8.608;2022-09-30T06:10:43;99988.91;;;5.80;100.00
45541;BME280;31265;49.680;8.608;2022-09-30T06:13:12;100000.00;;;5.88;100.00
45541;BME280;31265;49.680;8.608;2022-09-30T06:15:40;100000.19;;;5.90;100.00
45541;BME280;31265;49.680;8.608;2022-09-30T06:18:09;100002.16;;;5.81;100.00
45541;BME280;31265;49.680;8.608;2022-09-30T06:20:43;100007.72;;;5.89;100.00
45541;BME280;31265;49.680;8.608;2022-09-30T06:23:12;100011.09;;;5.95;100.00
45541;BME280;31265;49.680;8.608;2022-09-30T06:25:41;100006.41;;;6.03;100.00
45541;BME280;31265;49.680;8.608;2022-09-30T06:28:10;100004.91;;;6.02;100.00
45541;BME280;31265;49.680;8.608;2022-09-30T06:30:38;100009.03;;;6.09;100.00
45541;BME280;31265;49.680;8.608;2022-09-30T06:33:06;100011.31;;;6.18;100.00
45541;BME280;31265;49.680;8.608;2022-09-30T06:35:34;100017.13;;;6.15;100.00
45541;BME280;31265;49.680;8.608;2022-09-30T06:38:02;100022.31;;;6.18;100.00
45541;BME280;31265;49.680;8.608;2022-09-30T06:40:32;100019.28;;;6.30;100.00
45541;BME280;31265;49.680;8.608;2022-09-30T06:43:00;100024.63;;;6.35;100.00
45541;BME280;31265;49.680;8.608;2022-09-30T06:45:29;100028.22;;;6.43;100.00
45541;BME280;31265;49.680;8.608;2022-09-30T06:48:00;100027.69;;;6.53;100.00
45541;BME280;31265;49.680;8.608;2022-09-30T06:50:29;100029.41;;;6.56;100.00
45541;BME280;31265;49.680;8.608;2022-09-30T06:52:57;100036.47;;;6.43;100.00
45541;BME280;31265;49.680;8.608;2022-09-30T06:55:26;100040.78;;;6.60;100.00
45541;BME280;31265;49.680;8.608;2022-09-30T06:57:56;100048.75;;;6.63;100.00
45541;BME280;31265;49.680;8.608;2022-09-30T07:00:24;100047.00;;;6.81;100.00
45541;BME280;31265;49.680;8.608;2022-09-30T07:02:54;100051.06;;;6.80;100.00
45541;BME280;31265;49.680;8.608;2022-09-30T07:05:22;100050.94;;;6.94;100.00
45541;BME280;31265;49.680;8.608;2022-09-30T07:07:52;100044.19;;;7.02;100.00
45541;BME280;31265;49.680;8.608;2022-09-30T07:10:20;100044.78;;;7.16;100.00
45541;BME280;31265;49.680;8.608;2022-09-30T07:12:49;100041.47;;;7.10;100.00
45541;BME280;31265;49.680;8.608;2022-09-30T07:15:19;100044.03;;;7.08;100.00
45541;BME280;31265;49.680;8.608;2022-09-30T07:17:51;100047.00;;;7.10;100.00
45541;BME280;31265;49.680;8.608;2022-09-30T07:20:19;100056.16;;;7.05;100.00
45541;BME280;31265;49.680;8.608;2022-09-30T07:22:47;100057.84;;;7.16;100.00
45541;BME280;31265;49.680;8.608;2022-09-30T07:25:15;100065.47;;;7.30;100.00
45541;BME280;31265;49.680;8.608;2022-09-30T07:27:43;100065.78;;;7.19;100.00
45541;BME280;31265;49.680;8.608;2022-09-30T07:30:12;100065.91;;;7.50;100.00
45541;BME280;31265;49.680;8.608;2022-09-30T07:32:53;100064.34;;;7.78;100.00
45541;BME280;31265;49.680;8.608;2022-09-30T07:35:21;100074.31;;;7.96;100.00
45541;BME280;31265;49.680;8.608;2022-09-30T07:37:49;100083.91;;;8.03;100.00
45541;BME280;31265;49.680;8.608;2022-09-30T07:40:17;100094.19;;;7.87;100.00
45541;BME280;31265;49.680;8.608;2022-09-30T07:42:45;100085.72;;;7.92;100.00
45541;BME280;31265;49.680;8.608;2022-09-30T07:45:13;100085.72;;;7.85;100.00
45541;BME280;31265;49.680;8.608;2022-09-30T07:47:42;100085.91;;;7.87;100.00
45541;BME280;31265;49.680;8.608;2022-09-30T07:50:16;100087.94;;;7.86;100.00
45541;BME280;31265;49.680;8.608;2022-09-30T07:52:44;100082.59;;;7.96;100.00
45541;BME280;31265;49.680;8.608;2022-09-30T07:55:12;100090.75;;;8.32;100.00
45541;BME280;31265;49.680;8.608;2022-09-30T07:57:41;100087.63;;;8.36;100.00
45541;BME280;31265;49.680;8.608;2022-09-30T08:00:09;100098.69;;;8.36;100.00
45541;BME280;31265;49.680;8.608;2022-09-30T08:02:57;100105.69;;;8.68;100.00
45541;BME280;31265;49.680;8.608;2022-09-30T08:05:27;100114.34;;;8.87;100.00
45541;BME280;31265;49.680;8.608;2022-09-30T08:07:55;100109.41;;;8.78;100.00
45541;BME280;31265;49.680;8.608;2022-09-30T08:10:23;100107.72;;;8.75;100.00
45541;BME280;31265;49.680;8.608;2022-09-30T08:12:51;100097.91;;;8.97;100.00
45541;BME280;31265;49.680;8.608;2022-09-30T08:15:24;100097.72;;;9.02;100.00
45541;BME280;31265;49.680;8.608;2022-09-30T08:17:53;100108.75;;;9.25;100.00
45541;BME280;31265;49.680;8.608;2022-09-30T08:20:20;100112.50;;;8.90;100.00
45541;BME280;31265;49.680;8.608;2022-09-30T08:22:52;100109.72;;;8.97;100.00
45541;BME280;31265;49.680;8.608;2022-09-30T08:25:20;100114.34;;;9.10;100.00
45541;BME280;31265;49.680;8.608;2022-09-30T08:27:49;100119.25;;;9.35;100.00
45541;BME280;31265;49.680;8.608;2022-09-30T08:30:17;100122.00;;;9.27;100.00
45541;BME280;31265;49.680;8.608;2022-09-30T08:32:45;100124.75;;;9.42;100.00
45541;BME280;31265;49.680;8.608;2022-09-30T08:35:13;100128.38;;;9.60;100.00
45541;BME280;31265;49.680;8.608;2022-09-30T08:37:41;100127.06;;;10.02;100.00
45541;BME280;31265;49.680;8.608;2022-09-30T08:40:17;100132.63;;;10.02;100.00
45541;BME280;31265;49.680;8.608;2022-09-30T08:43:02;100143.63;;;9.84;100.00
45541;BME280;31265;49.680;8.608;2022-09-30T08:45:43;100151.44;;;10.03;100.00
45541;BME280;31265;49.680;8.608;2022-09-30T08:48:28;100139.84;;;10.30;100.00
45541;BME280;31265;49.680;8.608;2022-09-30T08:51:08;100144.25;;;10.33;100.00
45541;BME280;31265;49.680;8.608;2022-09-30T08:53:44;100134.44;;;10.40;100.00
45541;BME280;31265;49.680;8.608;2022-09-30T08:56:19;100134.59;;;10.67;100.00
45541;BME280;31265;49.680;8.608;2022-09-30T08:58:52;100130.19;;;10.39;100.00
45541;BME280;31265;49.680;8.608;2022-09-30T09:01:28;100124.88;;;10.25;100.00
45541;BME280;31265;49.680;8.608;2022-09-30T09:04:00;100122.47;;;10.29;100.00
45541;BME280;31265;49.680;8.608;2022-09-30T09:06:34;100110.69;;;10.21;100.00
45541;BME280;31265;49.680;8.608;2022-09-30T09:09:29;100109.19;;;10.20;100.00
45541;BME280;31265;49.680;8.608;2022-09-30T09:12:12;100112.53;;;10.19;100.00
45541;BME280;31265;49.680;8.608;2022-09-30T09:14:50;100122.13;;;9.93;100.00
45541;BME280;31265;49.680;8.608;2022-09-30T09:17:31;100118.03;;;10.26;100.00
45541;BME280;31265;49.680;8.608;2022-09-30T09:20:10;100118.13;;;10.44;100.00
45541;BME280;31265;49.680;8.608;2022-09-30T09:22:40;100110.97;;;10.58;100.00
45541;BME280;31265;49.680;8.608;2022-09-30T09:25:12;100113.00;;;10.58;100.00
45541;BME280;31265;49.680;8.608;2022-09-30T09:27:49;100115.22;;;10.59;100.00
45541;BME280;31265;49.680;8.608;2022-09-30T09:30:20;100116.97;;;10.72;100.00
45541;BME280;31265;49.680;8.608;2022-09-30T09:32:52;100134.66;;;11.02;100.00
45541;BME280;31265;49.680;8.608;2022-09-30T09:35:28;100133.75;;;11.16;100.00
45541;BME280;31265;49.680;8.608;2022-09-30T09:38:05;100129.34;;;11.31;100.00
45541;BME280;31265;49.680;8.608;2022-09-30T09:41:00;100121.03;;;11.13;100.00
45541;BME280;31265;49.680;8.608;2022-09-30T09:43:45;100121.03;;;11.13;100.00
45541;BME280;31265;49.680;8.608;2022-09-30T09:46:20;100127.22;;;11.22;100.00
45541;BME280;31265;49.680;8.608;2022-09-30T09:49:27;100129.00;;;11.44;100.00
45541;BME280;31265;49.680;8.608;2022-09-30T09:54:51;100137.22;;;11.69;100.00
45541;BME280;31265;49.680;8.608;2022-09-30T09:57:24;100132.31;;;11.77;100.00
45541;BME280;31265;49.680;8.608;2022-09-30T09:59:56;100134.63;;;11.71;100.00
45541;BME280;31265;49.680;8.608;2022-09-30T10:02:32;100142.22;;;11.88;100.00
45541;BME280;31265;49.680;8.608;2022-09-30T10:05:00;100139.94;;;12.04;100.00
45541;BME280;31265;49.680;8.608;2022-09-30T10:07:31;100143.66;;;12.16;100.00
45541;BME280;31265;49.680;8.608;2022-09-30T10:10:08;100144.28;;;12.15;100.00
45541;BME280;31265;49.680;8.608;2022-09-30T10:12:40;100138.94;;;12.36;100.00
45541;BME280;31265;49.680;8.608;2022-09-30T10:15:19;100143.06;;;12.45;100.00
45541;BME280;31265;49.680;8.608;2022-09-30T10:17:51;100137.56;;;12.64;100.00
45541;BME280;31265;49.680;8.608;2022-09-30T10:20:25;100135.50;;;12.55;100.00
45541;BME280;31265;49.680;8.608;2022-09-30T10:23:07;100134.97;;;12.76;100.00
45541;BME280;31265;49.680;8.608;2022-09-30T10:25:35;100139.56;;;13.01;100.00
45541;BME280;31265;49.680;8.608;2022-09-30T10:28:22;100134.88;;;13.13;100.00
45541;BME280;31265;49.680;8.608;2022-09-30T10:30:55;100123.63;;;13.30;100.00
45541;BME280;31265;49.680;8.608;2022-09-30T10:33:28;100132.78;;;13.91;100.00
45541;BME280;31265;49.680;8.608;2022-09-30T10:36:10;100134.81;;;14.01;100.00
45541;BME280;31265;49.680;8.608;2022-09-30T10:38:58;100130.56;;;14.40;100.00
45541;BME280;31265;49.680;8.608;2022-09-30T10:41:34;100122.22;;;14.72;100.00
45541;BME280;31265;49.680;8.608;2022-09-30T10:44:05;100125.75;;;14.72;100.00
45541;BME280;31265;49.680;8.608;2022-09-30T10:46:41;100121.53;;;15.59;100.00
45541;BME280;31265;49.680;8.608;2022-09-30T10:49:27;100123.88;;;15.63;100.00
45541;BME280;31265;49.680;8.608;2022-09-30T10:51:58;100125.31;;;15.85;100.00
45541;BME280;31265;49.680;8.608;2022-09-30T10:54:43;100125.72;;;15.70;100.00
45541;BME280;31265;49.680;8.608;2022-09-30T10:57:14;100117.56;;;16.31;100.00
45541;BME280;31265;49.680;8.608;2022-09-30T10:59:43;100125.97;;;16.43;98.37
45541;BME280;31265;49.680;8.608;2022-09-30T11:02:21;100108.78;;;16.01;100.00
45541;BME280;31265;49.680;8.608;2022-09-30T11:04:58;100112.78;;;16.22;100.00
45541;BME280;31265;49.680;8.608;2022-09-30T11:07:33;100116.16;;;16.91;94.10
45541;BME280;31265;49.680;8.608;2022-09-30T11:10:17;100115.69;;;16.94;85.83
45541;BME280;31265;49.680;8.608;2022-09-30T11:12:54;100106.69;;;16.61;92.03
45541;BME280;31265;49.680;8.608;2022-09-30T11:15:29;100112.28;;;16.72;88.05
45541;BME280;31265;49.680;8.608;2022-09-30T11:18:04;100106.06;;;16.86;90.98
45541;BME280;31265;49.680;8.608;2022-09-30T11:20:37;100111.97;;;17.15;85.51
45541;BME280;31265;49.680;8.608;2022-09-30T11:23:15;100124.59;;;17.28;81.33
45541;BME280;31265;49.680;8.608;2022-09-30T11:25:49;100120.38;;;17.92;73.77
45541;BME280;31265;49.680;8.608;2022-09-30T11:28:38;100116.53;;;17.60;94.28
45541;BME280;31265;49.680;8.608;2022-09-30T11:31:17;100107.16;;;17.55;77.35
45541;BME280;31265;49.680;8.608;2022-09-30T11:34:01;100110.59;;;17.54;73.02
45541;BME280;31265;49.680;8.608;2022-09-30T11:36:37;100119.06;;;17.93;70.26
45541;BME280;31265;49.680;8.608;2022-09-30T11:39:22;100112.66;;;18.87;70.45
45541;BME280;31265;49.680;8.608;2022-09-30T11:41:57;100109.00;;;18.30;64.34
45541;BME280;31265;49.680;8.608;2022-09-30T11:44:32;100115.34;;;18.16;65.71
45541;BME280;31265;49.680;8.608;2022-09-30T11:47:17;100116.91;;;18.05;66.13
45541;BME280;31265;49.680;8.608;2022-09-30T11:50:06;100106.81;;;17.49;72.13
45541;BME280;31265;49.680;8.608;2022-09-30T11:52:49;100113.03;;;17.48;70.83
45541;BME280;31265;49.680;8.608;2022-09-30T11:55:35;100107.50;;;17.36;68.02
45541;BME280;31265;49.680;8.608;2022-09-30T11:58:06;100105.03;;;17.16;71.59
45541;BME280;31265;49.680;8.608;2022-09-30T12:01:03;100106.31;;;16.66;70.41
45541;BME280;31265;49.680;8.608;2022-09-30T12:03:39;100109.13;;;16.90;72.41
45541;BME280;31265;49.680;8.608;2022-09-30T12:06:14;100112.09;;;17.69;67.53
45541;BME280;31265;49.680;8.608;2022-09-30T12:08:48;100110.72;;;17.56;68.85
45541;BME280;31265;49.680;8.608;2022-09-30T12:11:22;100109.72;;;17.77;69.18
45541;BME280;31265;49.680;8.608;2022-09-30T12:13:58;100115.25;;;17.49;69.28
45541;BME280;31265;49.680;8.608;2022-09-30T12:16:29;100109.13;;;17.27;71.81
45541;BME280;31265;49.680;8.608;2022-09-30T12:19:03;100123.75;;;17.26;68.34
45541;BME280;31265;49.680;8.608;2022-09-30T12:21:46;100119.22;;;17.58;64.67
45541;BME280;31265;49.680;8.608;2022-09-30T12:24:22;100118.75;;;17.24;68.25
45541;BME280;31265;49.680;8.608;2022-09-30T12:26:52;100123.25;;;16.56;74.84
45541;BME280;31265;49.680;8.608;2022-09-30T12:29:25;100118.66;;;16.49;73.52
45541;BME280;31265;49.680;8.608;2022-09-30T12:38:42;100122.25;;;15.81;77.04
45541;BME280;31265;49.680;8.608;2022-09-30T12:41:30;100126.13;;;15.76;80.65
45541;BME280;31265;49.680;8.608;2022-09-30T12:44:11;100118.63;;;15.90;78.49
45541;BME280;31265;49.680;8.608;2022-09-30T12:46:47;100118.28;;;16.08;74.28
45541;BME280;31265;49.680;8.608;2022-09-30T12:49:24;100118.50;;;15.88;75.24
45541;BME280;31265;49.680;8.608;2022-09-30T12:51:54;100135.81;;;16.20;75.14
45541;BME280;31265;49.680;8.608;2022-09-30T12:54:27;100124.25;;;16.26;75.42
45541;BME280;31265;49.680;8.608;2022-09-30T12:56:59;100121.53;;;16.04;80.59
45541;BME280;31265;49.680;8.608;2022-09-30T12:59:32;100122.41;;;16.07;89.15
45541;BME280;31265;49.680;8.608;2022-09-30T13:02:02;100118.41;;;16.22;83.96
45541;BME280;31265;49.680;8.608;2022-09-30T13:04:34;100116.53;;;15.91;88.46
45541;BME280;31265;49.680;8.608;2022-09-30T13:07:11;100112.41;;;15.80;97.35
45541;BME280;31265;49.680;8.608;2022-09-30T13:10:00;100123.97;;;15.65;86.08
45541;BME280;31265;49.680;8.608;2022-09-30T13:12:40;100122.50;;;15.52;83.72
45541;BME280;31265;49.680;8.608;2022-09-30T13:15:37;100121.31;;;16.00;89.55
45541;BME280;31265;49.680;8.608;2022-09-30T13:21:22;100128.31;;;17.07;70.26
45541;BME280;31265;49.680;8.608;2022-09-30T13:23:51;100134.25;;;17.76;65.41
45541;BME280;31265;49.680;8.608;2022-09-30T13:26:35;100130.59;;;17.74;61.48
45541;BME280;31265;49.680;8.608;2022-09-30T13:32:30;100130.97;;;17.17;63.37
45541;BME280;31265;49.680;8.608;2022-09-30T13:34:59;100128.31;;;17.07;63.44
45541;BME280;31265;49.680;8.608;2022-09-30T13:37:34;100115.94;;;16.63;74.88
45541;BME280;31265;49.680;8.608;2022-09-30T13:40:04;100118.53;;;17.46;63.37
45541;BME280;31265;49.680;8.608;2022-09-30T13:42:47;100123.47;;;18.10;57.55
45541;BME280;31265;49.680;8.608;2022-09-30T13:45:20;100123.91;;;18.60;54.60